Time;durP1;ratioP1;P1;durP2;ratioP2;P2;SDS_P1;SDS_P2;PMS_P1;PMS_P2;Temp;Humidity;BMP_temperature;BMP_pressure;BME280_temperature;BME280_humidity;BME280_pressure;Samples;Min_cycle;Max_cycle;Signal;HPM_P1;HPM_P2
2021/01/02 00:01:17;;;;;;;17.77;6.97;;;19.30;80.50;;;;;;5054728;28;20029;-74
2021/01/02 00:04:20;;;;;;;23.52;6.65;;;18.90;80.80;;;;;;5054960;28;20044;-74
2021/01/02 00:07:35;;;;;;;30.00;8.40;;;18.40;83.20;;;;;;5060119;28;20373;-74
2021/01/02 00:10:04;;;;;;;23.23;6.95;;;17.80;86.70;;;;;;5032650;28;20502;-73
2021/01/02 00:13:01;;;;;;;24.17;7.15;;;18.10;88.40;;;;;;5020621;28;20529;-74
2021/01/02 00:15:37;;;;;;;24.85;6.80;;;17.80;88.90;;;;;;5012225;28;20038;-74
2021/01/02 00:18:22;;;;;;;20.25;5.43;;;17.00;91.00;;;;;;5012039;28;20146;-74
2021/01/02 00:21:00;;;;;;;19.48;5.50;;;16.20;92.80;;;;;;5012735;28;20041;-75
2021/01/02 00:24:11;;;;;;;18.38;6.00;;;15.50;94.40;;;;;;5012136;28;20042;-74
2021/01/02 00:27:01;;;;;;;18.27;5.03;;;14.80;96.30;;;;;;4934497;29;20512;-74
2021/01/02 00:30:02;;;;;;;30.70;6.40;;;14.20;98.60;;;;;;4934949;29;20633;-75
2021/01/02 00:32:54;;;;;;;19.80;5.15;;;13.40;99.90;;;;;;4885680;29;20045;-74
2021/01/02 00:35:25;;;;;;;27.25;6.05;;;12.90;99.90;;;;;;4896727;29;20047;-74
2021/01/02 00:38:03;;;;;;;;;;;12.50;99.90;;;;;;4897181;29;20109;-73
2021/01/02 00:40:34;;;;;;;23.40;6.50;;;12.40;99.90;;;;;;4903793;29;20391;-73
2021/01/02 00:43:01;;;;;;;24.23;5.82;;;12.00;99.90;;;;;;4916020;29;20047;-73
2021/01/02 00:45:30;;;;;;;28.02;6.78;;;11.80;99.90;;;;;;4916360;29;20039;-74
2021/01/02 00:47:57;;;;;;;14.95;4.40;;;11.70;99.90;;;;;;4915671;29;20040;-74
2021/01/02 00:50:25;;;;;;;20.42;6.15;;;11.60;99.90;;;;;;4922917;29;20040;-74
2021/01/02 00:53:11;;;;;;;18.55;5.57;;;11.50;99.90;;;;;;4933810;29;20040;-73
2021/01/02 00:55:51;;;;;;;18.40;4.78;;;11.20;99.90;;;;;;4908733;29;20048;-73
2021/01/02 00:58:46;;;;;;;22.00;6.07;;;11.00;99.90;;;;;;4915573;29;20032;-72
2021/01/02 01:01:26;;;;;;;26.23;6.50;;;10.90;99.90;;;;;;4929763;29;20047;-73
2021/01/02 01:04:05;;;;;;;24.13;5.47;;;10.80;99.90;;;;;;4984703;28;20034;-73
2021/01/02 01:06:38;;;;;;;24.63;5.40;;;10.80;99.90;;;;;;5009924;28;20041;-74
2021/01/02 01:09:06;;;;;;;25.00;8.35;;;10.70;99.90;;;;;;5034883;28;20037;-73
2021/01/02 01:11:36;;;;;;;24.15;5.75;;;10.60;99.90;;;;;;5056617;28;20025;-73
2021/01/02 01:14:04;;;;;;;18.55;5.22;;;10.60;99.90;;;;;;5054948;28;20025;-73
2021/01/02 01:16:43;;;;;;;18.92;5.07;;;10.50;99.90;;;;;;5065971;28;20029;-73
2021/01/02 01:19:15;;;;;;;21.73;5.32;;;10.20;99.90;;;;;;5071385;28;20039;-74
2021/01/02 01:21:45;;;;;;;15.48;4.78;;;10.10;99.90;;;;;;5072079;28;20028;-72
2021/01/02 01:24:32;;;;;;;20.08;5.43;;;10.00;99.90;;;;;;5070404;28;20037;-72
2021/01/02 01:27:08;;;;;;;22.90;5.78;;;10.00;99.90;;;;;;5047479;28;20401;-72
2021/01/02 01:29:47;;;;;;;16.17;4.93;;;9.80;99.90;;;;;;5069670;28;20045;-72
2021/01/02 01:32:22;;;;;;;17.75;5.40;;;9.80;99.90;;;;;;5073125;28;20028;-75
2021/01/02 01:34:56;;;;;;;17.30;5.50;;;9.80;99.90;;;;;;5059091;28;20025;-72
2021/01/02 01:37:31;;;;;;;20.85;5.13;;;9.50;99.90;;;;;;5068387;28;20044;-73
2021/01/02 01:39:59;;;;;;;18.30;5.10;;;9.50;99.90;;;;;;5073044;28;20024;-73
2021/01/02 01:42:45;;;;;;;20.50;4.32;;;9.50;99.90;;;;;;5063810;28;20029;-72
2021/01/02 01:45:39;;;;;;;26.63;5.65;;;9.50;99.90;;;;;;5056917;28;20032;-73
2021/01/02 01:48:07;;;;;;;15.45;4.60;;;9.50;99.90;;;;;;5071721;28;20029;-73
2021/01/02 01:51:03;;;;;;;17.45;4.10;;;9.50;99.90;;;;;;5072642;28;20032;-72
2021/01/02 01:54:37;;;;;;;19.05;5.40;;;9.40;99.90;;;;;;5071602;28;20037;-73
2021/01/02 01:57:06;;;;;;;20.05;5.07;;;9.30;99.90;;;;;;4994236;28;20053;-73
2021/01/02 01:59:57;;;;;;;17.30;4.30;;;9.30;99.90;;;;;;5006259;28;20042;-72
2021/01/02 02:03:00;;;;;;;23.67;5.60;;;9.20;99.90;;;;;;5010533;28;20502;-72
2021/01/02 02:05:33;;;;;;;23.65;6.57;;;9.20;99.90;;;;;;4972417;28;20575;-74
2021/01/02 02:08:08;;;;;;;23.80;4.90;;;9.20;99.90;;;;;;5009124;28;20042;-73
2021/01/02 02:10:47;;;;;;;16.38;4.63;;;9.20;99.90;;;;;;4990632;28;20046;-73
2021/01/02 02:13:28;;;;;;;23.73;5.07;;;9.20;99.90;;;;;;4992119;28;20038;-74
2021/01/02 02:15:57;;;;;;;23.98;5.97;;;9.10;99.90;;;;;;4991593;28;20037;-74
2021/01/02 02:18:26;;;;;;;20.73;5.30;;;9.10;99.90;;;;;;4994445;28;20506;-72
2021/01/02 02:20:58;;;;;;;18.52;6.53;;;9.00;99.90;;;;;;4995053;28;20538;-73
2021/01/02 02:23:46;;;;;;;18.58;5.00;;;9.00;99.90;;;;;;4990083;28;20050;-75
2021/01/02 02:26:16;;;;;;;15.65;4.60;;;8.90;99.90;;;;;;5008303;28;20062;-73
2021/01/02 02:29:14;;;;;;;18.67;5.05;;;8.90;99.90;;;;;;4974217;28;20034;-72
2021/01/02 02:31:49;;;;;;;12.77;5.78;;;8.70;99.90;;;;;;4974428;28;20042;-73
2021/01/02 02:34:19;;;;;;;20.75;7.32;;;8.70;99.90;;;;;;5042411;28;20024;-76
2021/01/02 02:36:46;;;;;;;26.25;9.85;;;8.60;99.90;;;;;;5062620;28;20032;-73
2021/01/02 02:39:15;;;;;;;23.17;8.43;;;8.50;99.90;;;;;;5071360;28;20400;-71
2021/01/02 02:41:42;;;;;;;20.83;10.15;;;8.40;99.90;;;;;;5065725;28;20033;-71
2021/01/02 02:44:18;;;;;;;27.13;9.27;;;8.30;99.90;;;;;;5051702;28;20049;-71
2021/01/02 02:46:47;;;;;;;26.33;7.65;;;8.30;99.90;;;;;;5050763;28;20497;-72
2021/01/02 02:49:23;;;;;;;28.88;8.70;;;8.30;99.90;;;;;;5065845;28;20047;-72
2021/01/02 02:52:36;;;;;;;20.20;9.80;;;8.30;99.90;;;;;;5070321;28;20025;-71
2021/01/02 02:55:04;;;;;;;19.05;6.25;;;8.30;99.90;;;;;;5071400;28;20032;-71
2021/01/02 02:57:33;;;;;;;13.10;5.18;;;8.40;99.90;;;;;;5053861;28;20499;-71
2021/01/02 03:00:00;;;;;;;18.15;4.97;;;8.40;99.90;;;;;;5051251;28;20416;-70
2021/01/02 03:02:27;;;;;;;16.52;4.53;;;8.40;99.90;;;;;;5052617;28;20033;-70
2021/01/02 03:04:54;;;;;;;13.77;5.20;;;8.40;99.90;;;;;;5051398;28;20369;-71
2021/01/02 03:07:21;;;;;;;9.57;3.72;;;8.40;99.90;;;;;;5068053;28;20051;-71
2021/01/02 03:09:48;;;;;;;14.02;4.03;;;8.40;99.90;;;;;;5054738;28;20404;-72
2021/01/02 03:12:19;;;;;;;14.10;3.80;;;8.40;99.90;;;;;;5049956;28;20045;-70
2021/01/02 03:14:46;;;;;;;16.77;3.72;;;8.40;99.90;;;;;;5050349;28;20032;-67
2021/01/02 03:17:12;;;;;;;16.98;3.90;;;8.30;99.90;;;;;;5063544;28;20029;-66
2021/01/02 03:19:39;;;;;;;14.20;3.85;;;8.30;99.90;;;;;;5070672;28;20033;-69
2021/01/02 03:22:06;;;;;;;14.20;3.58;;;8.30;99.90;;;;;;5059350;28;20045;-68
2021/01/02 03:24:33;;;;;;;17.38;3.50;;;8.30;99.90;;;;;;5051701;28;20036;-69
2021/01/02 03:27:00;;;;;;;16.80;4.15;;;8.30;99.90;;;;;;5049061;28;20049;-68
2021/01/02 03:29:27;;;;;;;15.23;3.75;;;8.20;99.90;;;;;;5051102;28;20044;-67
2021/01/02 03:31:54;;;;;;;21.55;4.07;;;8.20;99.90;;;;;;5052438;28;20044;-68
2021/01/02 03:34:21;;;;;;;15.05;3.40;;;8.20;99.90;;;;;;5050936;28;20369;-67
2021/01/02 03:36:48;;;;;;;10.10;3.35;;;8.20;99.90;;;;;;5051334;28;20036;-67
2021/01/02 03:39:15;;;;;;;10.10;3.83;;;8.20;99.90;;;;;;5049828;28;20435;-66
2021/01/02 03:41:42;;;;;;;19.83;5.05;;;8.20;99.90;;;;;;5055316;28;20017;-67
2021/01/02 03:44:12;;;;;;;16.38;4.53;;;8.20;99.90;;;;;;5070581;28;20025;-67
2021/01/02 03:46:39;;;;;;;25.00;4.07;;;8.20;99.90;;;;;;5068693;28;20036;-66
2021/01/02 03:49:05;;;;;;;24.13;6.10;;;8.20;99.90;;;;;;5059189;28;20036;-68
2021/01/02 03:51:32;;;;;;;18.52;4.15;;;8.30;99.90;;;;;;5050785;28;20036;-68
2021/01/02 03:53:59;;;;;;;20.35;6.10;;;8.30;99.90;;;;;;5050335;28;20044;-68
2021/01/02 03:56:26;;;;;;;21.85;6.10;;;8.30;99.90;;;;;;5050813;28;20029;-67
2021/01/02 03:58:53;;;;;;;22.50;6.05;;;8.40;99.90;;;;;;5050611;28;20048;-67
2021/01/02 04:01:20;;;;;;;18.50;5.45;;;8.40;99.90;;;;;;5050738;28;20426;-66
2021/01/02 04:03:47;;;;;;;20.38;7.07;;;8.40;99.90;;;;;;5067705;28;20044;-67
2021/01/02 04:06:14;;;;;;;14.15;4.95;;;8.40;99.90;;;;;;5068818;28;20040;-67
2021/01/02 04:08:41;;;;;;;28.50;6.63;;;8.40;99.90;;;;;;5070595;28;20035;-68
2021/01/02 04:11:08;;;;;;;13.70;3.72;;;8.40;99.90;;;;;;5057680;28;20033;-69
2021/01/02 04:13:35;;;;;;;11.15;3.75;;;8.40;99.90;;;;;;5068965;28;20041;-68
2021/01/02 04:16:02;;;;;;;12.88;3.88;;;8.30;99.90;;;;;;5057014;28;20025;-68
2021/01/02 04:18:29;;;;;;;16.08;3.55;;;8.40;99.90;;;;;;5053038;28;20040;-67
2021/01/02 04:20:56;;;;;;;11.93;3.03;;;8.40;99.90;;;;;;5050833;28;20021;-68
2021/01/02 04:23:23;;;;;;;15.40;3.55;;;8.30;99.90;;;;;;5050820;28;20048;-68
2021/01/02 04:25:50;;;;;;;19.25;4.80;;;8.30;99.90;;;;;;5050045;28;20048;-68
2021/01/02 04:28:17;;;;;;;13.52;3.42;;;8.30;99.90;;;;;;5053800;28;20040;-68
2021/01/02 04:30:43;;;;;;;12.20;3.85;;;8.30;99.90;;;;;;5054102;28;20025;-67
2021/01/02 04:33:10;;;;;;;17.80;4.60;;;8.30;99.90;;;;;;5053195;28;20044;-69
2021/01/02 04:35:37;;;;;;;14.13;4.70;;;8.30;99.90;;;;;;5053601;28;20378;-68
2021/01/02 04:38:05;;;;;;;21.17;3.92;;;8.30;99.90;;;;;;5055448;28;20033;-67
2021/01/02 04:40:32;;;;;;;19.83;3.72;;;8.30;99.90;;;;;;5052904;28;20041;-67
2021/01/02 04:42:59;;;;;;;24.73;3.95;;;8.40;99.90;;;;;;5057047;28;20040;-68
2021/01/02 04:45:26;;;;;;;14.60;3.20;;;8.40;99.90;;;;;;5054387;28;20048;-67
2021/01/02 04:47:58;;;;;;;17.45;3.45;;;8.40;99.90;;;;;;5056317;28;20049;-66
2021/01/02 04:50:26;;;;;;;;;;;8.50;99.90;;;;;;5053820;28;20028;-67
2021/01/02 04:52:59;;;;;;;17.67;4.22;;;8.50;99.90;;;;;;5054910;28;19908;-68
2021/01/02 04:55:31;;;;;;;21.95;5.00;;;8.50;99.90;;;;;;5062257;28;20024;-67
2021/01/02 04:57:59;;;;;;;17.63;4.05;;;8.60;99.90;;;;;;5056044;28;20064;-66
2021/01/02 05:00:27;;;;;;;18.75;5.00;;;8.60;99.90;;;;;;5053635;28;20108;-68
2021/01/02 05:02:54;;;;;;;29.02;5.57;;;8.60;99.90;;;;;;5054474;28;20477;-68
2021/01/02 05:05:21;;;;;;;31.17;7.63;;;8.60;99.90;;;;;;5051989;28;20044;-67
2021/01/02 05:07:48;;;;;;;25.63;5.93;;;8.60;99.90;;;;;;5053202;28;20405;-68
2021/01/02 05:10:15;;;;;;;28.92;6.90;;;8.60;99.90;;;;;;5053044;28;20040;-68
2021/01/02 05:12:43;;;;;;;24.38;6.88;;;8.60;99.90;;;;;;5069147;28;20032;-68
2021/01/02 05:15:13;;;;;;;24.20;7.22;;;8.70;99.90;;;;;;5062322;28;20037;-67
2021/01/02 05:17:41;;;;;;;34.25;8.02;;;8.70;99.90;;;;;;5053104;28;20033;-66
2021/01/02 05:20:13;;;;;;;35.70;7.93;;;8.70;99.90;;;;;;5061177;28;20079;-68
2021/01/02 05:22:41;;;;;;;24.80;5.68;;;8.70;99.90;;;;;;5072397;28;20043;-67
2021/01/02 05:25:22;;;;;;;19.13;4.38;;;8.80;99.90;;;;;;5071244;28;20004;-69
2021/01/02 05:27:51;;;;;;;32.10;6.45;;;8.80;99.90;;;;;;5073134;28;20388;-67
2021/01/02 05:30:26;;;;;;;34.58;8.00;;;8.90;99.90;;;;;;5072542;28;20381;-67
2021/01/02 05:33:13;;;;;;;18.40;4.75;;;8.80;99.90;;;;;;5058265;28;20393;-69
2021/01/02 05:35:47;;;;;;;19.42;5.75;;;8.80;99.90;;;;;;5053765;28;20032;-67
2021/01/02 05:38:22;;;;;;;26.15;6.30;;;8.90;99.90;;;;;;5051695;28;20052;-70
2021/01/02 05:40:55;;;;;;;35.10;6.82;;;8.90;99.90;;;;;;5056295;28;20377;-67
2021/01/02 05:43:24;;;;;;;35.17;10.75;;;8.90;99.90;;;;;;5056736;28;20059;-68
2021/01/02 05:45:51;;;;;;;28.25;7.20;;;8.80;99.90;;;;;;5052388;28;20032;-69
2021/01/02 05:48:26;;;;;;;26.00;6.80;;;8.70;99.90;;;;;;5052949;28;20538;-70
2021/01/02 05:50:59;;;;;;;21.00;6.32;;;8.80;99.90;;;;;;5053079;28;20032;-69
2021/01/02 05:53:34;;;;;;;46.08;9.70;;;8.80;99.90;;;;;;5052517;28;20025;-69
2021/01/02 05:56:10;;;;;;;26.95;6.72;;;8.80;99.90;;;;;;5053109;28;20422;-69
2021/01/02 05:58:42;;;;;;;29.13;7.40;;;8.90;99.90;;;;;;5052393;28;20475;-68
2021/01/02 06:01:17;;;;;;;22.85;8.55;;;8.90;99.90;;;;;;5052332;28;20039;-69
2021/01/02 06:03:48;;;;;;;32.55;8.05;;;8.90;99.90;;;;;;5052333;28;20032;-69
2021/01/02 06:06:19;;;;;;;21.27;6.07;;;8.90;99.90;;;;;;5051806;28;20099;-68
2021/01/02 06:08:51;;;;;;;24.15;5.78;;;9.00;99.90;;;;;;5051647;28;20044;-68
2021/01/02 06:11:18;;;;;;;20.75;4.97;;;9.00;99.90;;;;;;5051892;28;20040;-69
2021/01/02 06:13:47;;;;;;;14.50;4.10;;;9.00;99.90;;;;;;5052151;28;20052;-68
2021/01/02 06:16:15;;;;;;;16.17;4.80;;;9.10;99.90;;;;;;5052429;28;20047;-69
2021/01/02 06:18:44;;;;;;;18.83;5.20;;;9.10;99.90;;;;;;5052333;28;20032;-69
2021/01/02 06:21:16;;;;;;;17.92;4.13;;;9.10;99.90;;;;;;5052026;28;20025;-69
2021/01/02 06:23:44;;;;;;;18.90;4.82;;;9.20;99.90;;;;;;5051801;28;20404;-69
2021/01/02 06:26:14;;;;;;;31.63;5.63;;;9.20;99.90;;;;;;5051335;28;20384;-69
2021/01/02 06:28:43;;;;;;;19.77;4.05;;;9.20;99.90;;;;;;5052266;28;20040;-68
2021/01/02 06:31:15;;;;;;;26.83;5.43;;;9.20;99.90;;;;;;5052065;28;20025;-68
2021/01/02 06:33:47;;;;;;;22.98;5.22;;;9.10;99.90;;;;;;5050749;28;20060;-68
2021/01/02 06:36:35;;;;;;;23.25;5.55;;;9.10;99.90;;;;;;5051314;28;20032;-68
2021/01/02 06:39:18;;;;;;;24.52;4.72;;;8.90;99.90;;;;;;5032147;28;20390;-68
2021/01/02 06:41:45;;;;;;;24.67;4.22;;;8.90;99.90;;;;;;5031636;28;20029;-68
2021/01/02 06:44:41;;;;;;;27.40;5.35;;;8.90;99.90;;;;;;5031977;28;20052;-68
2021/01/02 06:47:22;;;;;;;24.33;5.53;;;8.90;99.90;;;;;;5031804;28;20045;-68
2021/01/02 06:49:53;;;;;;;16.83;4.27;;;8.80;99.90;;;;;;5053739;28;20465;-67
2021/01/02 06:52:36;;;;;;;23.83;7.30;;;8.80;99.90;;;;;;5051863;28;20040;-70
2021/01/02 06:55:29;;;;;;;16.58;4.28;;;8.90;99.90;;;;;;5051598;28;20029;-68
2021/01/02 06:58:17;;;;;;;19.85;4.90;;;9.00;99.90;;;;;;5032015;28;20044;-67
2021/01/02 07:00:45;;;;;;;18.10;6.38;;;9.00;99.90;;;;;;5050247;28;20044;-68
2021/01/02 07:03:39;;;;;;;15.38;5.43;;;8.90;99.90;;;;;;5051487;28;20032;-69
2021/01/02 07:06:24;;;;;;;19.70;3.70;;;8.90;99.90;;;;;;5051644;28;20036;-68
2021/01/02 07:08:56;;;;;;;17.08;3.40;;;9.00;99.90;;;;;;5051333;28;20048;-69
2021/01/02 07:11:35;;;;;;;16.00;3.13;;;8.90;99.90;;;;;;5051312;28;20389;-68
2021/01/02 07:14:17;;;;;;;10.95;2.97;;;9.00;99.90;;;;;;5051237;28;20035;-69
2021/01/02 07:16:50;;;;;;;12.50;2.95;;;9.00;99.90;;;;;;5051342;28;20025;-68
2021/01/02 07:19:26;;;;;;;13.85;2.33;;;9.00;99.90;;;;;;5051508;28;20365;-68
2021/01/02 07:22:00;;;;;;;25.58;3.55;;;9.00;99.90;;;;;;5051284;28;20381;-68
2021/01/02 07:24:45;;;;;;;9.00;2.15;;;9.10;99.90;;;;;;5051209;28;20037;-68
2021/01/02 07:27:16;;;;;;;10.00;2.28;;;9.10;99.90;;;;;;5051202;28;20037;-68
2021/01/02 07:29:51;;;;;;;14.63;3.63;;;9.10;99.90;;;;;;5051407;28;20493;-69
2021/01/02 07:32:22;;;;;;;13.52;2.80;;;9.10;99.90;;;;;;5051227;28;20044;-69
2021/01/02 07:34:55;;;;;;;8.93;1.67;;;9.10;99.90;;;;;;5051383;28;20036;-68
2021/01/02 07:37:32;;;;;;;10.38;1.80;;;9.10;99.90;;;;;;5051004;28;20405;-68
2021/01/02 07:40:09;;;;;;;7.07;1.73;;;9.20;99.90;;;;;;5051394;28;20025;-68
2021/01/02 07:42:37;;;;;;;7.80;1.98;;;9.20;99.90;;;;;;5051308;28;20465;-68
2021/01/02 07:45:09;;;;;;;9.25;2.08;;;9.20;99.90;;;;;;5052932;28;20051;-69
2021/01/02 07:47:39;;;;;;;;;;;9.30;99.90;;;;;;5051297;28;20070;-69
2021/01/02 07:50:10;;;;;;;10.63;1.85;;;9.30;99.90;;;;;;5051573;28;20348;-69
2021/01/02 07:52:46;;;;;;;8.38;1.63;;;9.30;99.90;;;;;;5051071;28;20024;-68
2021/01/02 07:55:14;;;;;;;7.85;1.70;;;9.30;99.90;;;;;;5050907;28;20029;-68
2021/01/02 07:57:41;;;;;;;9.52;1.67;;;9.40;99.90;;;;;;5051081;28;20052;-70
2021/01/02 08:00:10;;;;;;;9.75;2.28;;;9.40;99.90;;;;;;5062988;28;20032;-69
2021/01/02 08:02:40;;;;;;;11.25;1.98;;;9.40;99.90;;;;;;5074863;28;20031;-69
2021/01/02 08:05:09;;;;;;;8.50;1.52;;;9.40;99.90;;;;;;5068457;28;20035;-67
2021/01/02 08:07:37;;;;;;;8.52;1.80;;;9.30;99.90;;;;;;5075123;28;20029;-68
2021/01/02 08:10:08;;;;;;;6.95;1.35;;;9.40;99.90;;;;;;5072995;28;20024;-70
2021/01/02 08:12:36;;;;;;;9.90;2.00;;;9.40;99.90;;;;;;5073260;28;20392;-69
2021/01/02 08:15:05;;;;;;;9.35;1.77;;;9.50;99.90;;;;;;5072194;28;20036;-69
2021/01/02 08:17:39;;;;;;;11.57;1.95;;;9.50;99.90;;;;;;5070924;28;20040;-69
2021/01/02 08:20:07;;;;;;;13.15;2.17;;;9.50;99.90;;;;;;5054482;28;20029;-70
2021/01/02 08:22:36;;;;;;;10.75;2.45;;;9.50;99.90;;;;;;5054280;28;20116;-69
2021/01/02 08:25:06;;;;;;;8.32;2.15;;;9.60;99.90;;;;;;5058125;28;20029;-72
2021/01/02 08:27:35;;;;;;;8.63;2.30;;;9.60;99.90;;;;;;5075747;28;20040;-68
2021/01/02 08:30:06;;;;;;;16.30;2.08;;;9.60;99.90;;;;;;5065349;28;20028;-70
2021/01/02 08:32:37;;;;;;;12.77;2.10;;;9.50;99.90;;;;;;5055328;28;20492;-67
2021/01/02 08:35:25;;;;;;;17.48;3.78;;;9.50;99.90;;;;;;5052893;28;20037;-68
2021/01/02 08:37:52;;;;;;;7.72;2.22;;;9.50;99.90;;;;;;5032995;28;20041;-69
2021/01/02 08:40:19;;;;;;;10.48;2.17;;;9.50;99.90;;;;;;5038854;28;20929;-68
2021/01/02 08:42:48;;;;;;;13.15;2.95;;;9.50;99.90;;;;;;5073094;28;20033;-69
2021/01/02 08:45:30;;;;;;;8.75;1.98;;;9.50;99.90;;;;;;5055727;28;20043;-68
2021/01/02 08:48:12;;;;;;;10.63;2.38;;;9.50;99.90;;;;;;5061080;28;20052;-69
2021/01/02 08:50:40;;;;;;;8.93;2.10;;;9.50;99.90;;;;;;5057360;28;20045;-69
2021/01/02 08:53:23;;;;;;;10.73;2.63;;;9.50;99.90;;;;;;5061749;28;20526;-68
2021/01/02 08:55:49;;;;;;;10.02;2.45;;;9.50;99.90;;;;;;5057111;28;20029;-68
2021/01/02 08:58:33;;;;;;;9.80;2.75;;;9.50;99.90;;;;;;5061989;28;20031;-68
2021/01/02 09:01:03;;;;;;;14.13;3.03;;;9.50;99.90;;;;;;5072694;28;20025;-68
2021/01/02 09:03:30;;;;;;;15.55;3.40;;;9.50;99.90;;;;;;5072326;28;20033;-69
2021/01/02 09:05:57;;;;;;;7.38;2.60;;;9.50;99.90;;;;;;5056652;28;20128;-69
2021/01/02 09:08:24;;;;;;;18.50;4.38;;;9.50;99.90;;;;;;5058480;28;20052;-69
2021/01/02 09:10:58;;;;;;;16.85;3.67;;;9.50;99.90;;;;;;5073748;28;20025;-68
2021/01/02 09:13:27;;;;;;;14.85;3.80;;;9.50;99.90;;;;;;5071839;28;20040;-68
2021/01/02 09:16:01;;;;;;;10.27;2.83;;;9.60;99.90;;;;;;5055254;28;20033;-68
2021/01/02 09:18:31;;;;;;;9.85;3.10;;;9.60;99.90;;;;;;5071756;28;20032;-68
2021/01/02 09:21:19;;;;;;;19.25;4.45;;;9.60;99.90;;;;;;5073621;28;20024;-68
2021/01/02 09:23:46;;;;;;;9.35;3.15;;;9.60;99.90;;;;;;5064526;28;20041;-69
2021/01/02 09:26:27;;;;;;;14.75;3.03;;;9.60;99.90;;;;;;5065479;28;20024;-69
2021/01/02 09:28:57;;;;;;;9.95;2.65;;;9.70;99.90;;;;;;5054188;28;20044;-69
2021/01/02 09:31:24;;;;;;;10.52;2.53;;;9.70;99.90;;;;;;5053317;28;20029;-67
2021/01/02 09:33:53;;;;;;;8.55;2.45;;;9.80;99.90;;;;;;5065225;28;20044;-67
2021/01/02 09:36:21;;;;;;;8.80;3.03;;;9.80;99.90;;;;;;5071521;28;20839;-67
2021/01/02 09:38:50;;;;;;;13.07;3.45;;;9.80;99.90;;;;;;5073038;28;20055;-69
2021/01/02 09:41:22;;;;;;;9.30;3.05;;;9.80;99.90;;;;;;5067670;28;20040;-67
2021/01/02 09:43:56;;;;;;;10.88;3.30;;;9.80;99.90;;;;;;5052838;28;20029;-69
2021/01/02 09:46:25;;;;;;;12.10;3.70;;;9.80;99.90;;;;;;5052250;28;20044;-69
2021/01/02 09:48:54;;;;;;;13.32;3.65;;;9.80;99.90;;;;;;5052974;28;20043;-69
2021/01/02 09:51:25;;;;;;;9.95;3.38;;;9.80;99.90;;;;;;5052907;28;20025;-69
2021/01/02 09:53:55;;;;;;;8.25;2.63;;;9.80;99.90;;;;;;5038335;28;20025;-69
2021/01/02 09:56:22;;;;;;;8.43;2.40;;;9.80;99.90;;;;;;5052311;28;20033;-68
2021/01/02 09:58:48;;;;;;;4.80;2.25;;;9.80;99.90;;;;;;5070092;28;20044;-69
2021/01/02 10:01:16;;;;;;;15.15;3.30;;;9.80;99.90;;;;;;5058825;28;20048;-69
2021/01/02 10:03:44;;;;;;;14.00;2.90;;;9.80;99.90;;;;;;5053894;28;20028;-69
2021/01/02 10:06:12;;;;;;;13.75;3.22;;;9.70;99.90;;;;;;5070589;28;20357;-70
2021/01/02 10:08:39;;;;;;;8.27;2.55;;;9.70;99.90;;;;;;5070760;28;20040;-68
2021/01/02 10:11:06;;;;;;;13.43;2.70;;;9.70;99.90;;;;;;5072370;28;20024;-69
2021/01/02 10:13:34;;;;;;;12.32;2.92;;;9.60;99.90;;;;;;5071452;28;20032;-68
2021/01/02 10:16:00;;;;;;;12.45;3.17;;;9.50;99.90;;;;;;5070667;28;20036;-68
2021/01/02 10:18:27;;;;;;;9.57;2.97;;;9.50;99.90;;;;;;5054326;28;20023;-68
2021/01/02 10:20:54;;;;;;;9.63;2.55;;;9.50;99.90;;;;;;5052228;28;20401;-68
2021/01/02 10:23:21;;;;;;;8.60;2.40;;;9.40;99.90;;;;;;5069252;28;20036;-67
2021/01/02 10:25:48;;;;;;;4.93;2.00;;;9.40;99.90;;;;;;5070726;28;20028;-67
2021/01/02 10:28:15;;;;;;;10.32;1.75;;;9.40;99.90;;;;;;5069977;28;20456;-69
2021/01/02 10:30:42;;;;;;;8.90;2.40;;;9.30;99.90;;;;;;5067478;28;20052;-68
2021/01/02 10:33:09;;;;;;;8.60;2.45;;;9.30;99.90;;;;;;5071036;28;20037;-67
2021/01/02 10:35:35;;;;;;;13.93;2.88;;;9.10;99.90;;;;;;5071761;28;20051;-69
2021/01/02 10:38:02;;;;;;;10.07;3.22;;;9.00;99.90;;;;;;5062781;28;20481;-68
2021/01/02 10:40:29;;;;;;;10.60;2.70;;;8.90;99.90;;;;;;5052047;28;20021;-68
2021/01/02 10:42:56;;;;;;;14.00;3.70;;;8.90;99.90;;;;;;5050364;28;20155;-69
2021/01/02 10:45:23;;;;;;;14.63;3.00;;;8.80;99.90;;;;;;5051322;28;20116;-68
2021/01/02 10:47:50;;;;;;;17.25;2.97;;;8.70;99.90;;;;;;5060556;28;20037;-69
2021/01/02 10:50:17;;;;;;;17.02;3.20;;;8.60;99.90;;;;;;5071803;28;20029;-68
2021/01/02 10:52:44;;;;;;;14.60;3.13;;;8.60;99.90;;;;;;5060308;28;20033;-68
2021/01/02 10:55:11;;;;;;;13.00;3.08;;;8.60;99.90;;;;;;5052035;28;20028;-69
2021/01/02 10:57:38;;;;;;;10.85;2.60;;;8.60;99.90;;;;;;5058239;28;20039;-68
2021/01/02 11:00:07;;;;;;;13.07;3.03;;;8.60;99.90;;;;;;5051677;28;20029;-69
2021/01/02 11:02:34;;;;;;;11.13;2.65;;;8.60;99.90;;;;;;5051730;28;20036;-68
2021/01/02 11:05:02;;;;;;;12.00;2.63;;;8.60;99.90;;;;;;5065972;28;20043;-68
2021/01/02 11:07:29;;;;;;;11.90;4.32;;;8.60;99.90;;;;;;5071228;28;20049;-68
2021/01/02 11:09:56;;;;;;;12.75;2.92;;;8.60;99.90;;;;;;5054405;28;20039;-68
2021/01/02 11:12:26;;;;;;;15.02;3.22;;;8.60;99.90;;;;;;5051548;28;20033;-68
2021/01/02 11:14:53;;;;;;;12.00;2.70;;;8.60;99.90;;;;;;5051427;28;20025;-68
2021/01/02 11:17:20;;;;;;;15.20;3.20;;;8.60;99.90;;;;;;5049845;28;20063;-68
2021/01/02 11:19:47;;;;;;;12.13;3.78;;;8.50;99.90;;;;;;5061024;28;20025;-68
2021/01/02 11:22:15;;;;;;;14.38;2.88;;;8.40;99.90;;;;;;5066975;28;20489;-68
2021/01/02 11:24:44;;;;;;;11.23;2.60;;;8.40;99.90;;;;;;5066606;28;20036;-68
2021/01/02 11:27:12;;;;;;;13.50;3.58;;;8.40;99.90;;;;;;5068291;28;20021;-67
2021/01/02 11:29:39;;;;;;;7.70;2.42;;;8.30;99.90;;;;;;5058722;28;20047;-67
2021/01/02 11:32:09;;;;;;;11.93;2.80;;;8.30;99.90;;;;;;5070070;28;20055;-68
2021/01/02 11:34:37;;;;;;;15.77;3.38;;;8.30;99.90;;;;;;5066841;28;20037;-70
2021/01/02 11:37:06;;;;;;;12.27;3.63;;;8.20;99.90;;;;;;5073060;28;20035;-68
2021/01/02 11:39:33;;;;;;;16.05;4.00;;;8.30;99.90;;;;;;5073580;28;20381;-68
2021/01/02 11:42:02;;;;;;;12.93;2.90;;;8.20;99.90;;;;;;5073481;28;20047;-68
2021/01/02 11:44:29;;;;;;;11.93;3.15;;;8.20;99.90;;;;;;5062582;28;20043;-68
2021/01/02 11:46:57;;;;;;;14.73;3.45;;;8.30;99.90;;;;;;5070494;28;20028;-67
2021/01/02 11:49:34;;;;;;;11.18;2.90;;;8.30;99.90;;;;;;5055202;28;20060;-68
2021/01/02 11:52:04;;;;;;;10.30;3.03;;;8.20;99.90;;;;;;5065522;28;20025;-70
2021/01/02 11:54:32;;;;;;;13.63;3.63;;;8.10;99.90;;;;;;5073313;28;20063;-68
2021/01/02 11:57:02;;;;;;;12.82;4.07;;;8.10;99.90;;;;;;5074758;28;20033;-68
2021/01/02 11:59:29;;;;;;;14.05;3.20;;;8.10;99.90;;;;;;5074141;28;20036;-68
2021/01/02 12:02:00;;;;;;;7.78;2.42;;;8.20;99.90;;;;;;5057260;28;20037;-69
2021/01/02 12:04:29;;;;;;;10.33;2.63;;;8.20;99.90;;;;;;5063113;28;20456;-70
2021/01/02 12:06:57;;;;;;;6.15;2.33;;;8.10;99.90;;;;;;5062717;28;20273;-70
2021/01/02 12:09:26;;;;;;;8.98;2.55;;;8.10;99.90;;;;;;5054701;28;20048;-70
2021/01/02 12:11:55;;;;;;;5.82;3.08;;;8.20;99.90;;;;;;5062378;28;20031;-69
2021/01/02 12:14:27;;;;;;;8.10;2.78;;;8.10;99.90;;;;;;5054708;28;20036;-70
2021/01/02 12:16:57;;;;;;;6.15;2.70;;;8.10;99.90;;;;;;5064745;28;20032;-69
2021/01/02 12:19:26;;;;;;;9.75;2.70;;;8.10;99.90;;;;;;5073768;28;20021;-70
2021/01/02 12:22:07;;;;;;;10.32;2.92;;;8.20;99.90;;;;;;5057170;28;20025;-69
2021/01/02 12:24:35;;;;;;;7.53;2.83;;;8.20;99.90;;;;;;5058091;28;20037;-70
2021/01/02 12:27:10;;;;;;;7.60;2.72;;;8.20;99.90;;;;;;5066933;28;20296;-71
2021/01/02 12:29:38;;;;;;;7.60;2.50;;;8.20;99.90;;;;;;5066199;28;20051;-69
2021/01/02 12:32:08;;;;;;;5.43;1.98;;;8.30;99.90;;;;;;5054653;28;20033;-69
2021/01/02 12:34:38;;;;;;;6.68;1.95;;;8.30;99.90;;;;;;5067862;28;20147;-69
2021/01/02 12:37:09;;;;;;;5.75;2.30;;;8.20;99.90;;;;;;5070544;28;20041;-70
2021/01/02 12:39:37;;;;;;;9.00;2.20;;;8.10;99.90;;;;;;5074125;28;20028;-69
2021/01/02 12:42:04;;;;;;;5.30;2.10;;;8.10;99.90;;;;;;5065230;28;20048;-69
2021/01/02 12:44:32;;;;;;;6.30;2.38;;;8.10;99.90;;;;;;5056860;28;20473;-69
2021/01/02 12:47:05;;;;;;;5.35;1.98;;;8.10;99.90;;;;;;5053213;28;20037;-69
2021/01/02 12:49:32;;;;;;;3.10;1.77;;;8.00;99.90;;;;;;5051908;28;20048;-69
2021/01/02 12:52:04;;;;;;;4.53;1.70;;;7.90;99.90;;;;;;5053677;28;20036;-70
2021/01/02 12:54:31;;;;;;;3.03;1.50;;;8.00;99.90;;;;;;5056117;28;20033;-70
2021/01/02 12:56:58;;;;;;;3.67;1.70;;;8.00;99.90;;;;;;5072435;28;20028;-69
2021/01/02 12:59:32;;;;;;;3.25;1.70;;;8.00;99.90;;;;;;5061097;28;20036;-69
2021/01/02 13:02:00;;;;;;;3.97;1.55;;;8.10;99.90;;;;;;5072993;28;20037;-69
2021/01/02 13:04:28;;;;;;;3.60;1.33;;;8.20;99.90;;;;;;5072166;28;20025;-69
2021/01/02 13:06:57;;;;;;;4.03;1.55;;;8.20;99.90;;;;;;5072383;28;20039;-70
2021/01/02 13:09:25;;;;;;;4.35;1.60;;;8.20;99.90;;;;;;5054755;28;20045;-69
2021/01/02 13:11:53;;;;;;;10.80;1.70;;;8.20;99.90;;;;;;5073388;28;20507;-69
2021/01/02 13:14:41;;;;;;;7.00;1.40;;;8.30;99.90;;;;;;5072892;28;20048;-69